Crescent, Oklahoma
Current Conditions -  °F | °C
As of 5:01 PM on Thursday 18 Dec 2014 (Local Time) from KGOK Reporting Station
Haze Haze  
Wind Chill: 37°   Ceiling: 800
Heat Index: 40°   Visibility: 3mi
Dew Point: 38°   Wind: 5mph
Humidity: 93%   Direction: 20°NNE
Pressure: 30.16"   Gusts: NA
Location:  35.95°N, 97.59°W
Report Text: KGOK 182301Z AUTO 02004KT 3SM BR BKN008 OVC011 04/03 A3016 RMK AO2 CIG 004V008 T00440033
Loading
Personal Weather Stations






























Interactive Weather Map New forecast layout! Learn more

10-Day Weather Forecast

Advertisements
Track Severe Weather on mobile